Time;durP1;ratioP1;P1;durP2;ratioP2;P2;SDS_P1;SDS_P2;PMS_P1;PMS_P2;Temp;Humidity;BMP_temperature;BMP_pressure;BME280_temperature;BME280_humidity;BME280_pressure;Samples;Min_cycle;Max_cycle;Signal;HPM_P1;HPM_P2
2023/01/20 07:12:24;;;;;;;9.40;6.80;;;;;;;;;;12632069;23;20014;-88
2023/01/20 07:18:06;;;;;;;14.73;10.50;;;;;;;;;;11798847;23;16814611;-88
2023/01/20 07:23:07;;;;;;;;;;;;;;;;;;12404253;24;20048;-88
2023/01/20 07:28:41;;;;;;;24.73;16.52;;;;;;;;;;12388411;23;19906;-88
2023/01/20 07:33:57;;;;;;;11.77;8.13;;;;;;;;;;12477721;23;20027;-86
2023/01/20 07:39:07;;;;;;;16.88;11.57;;;;;;;;;;12570178;23;20005;-87
2023/01/20 07:44:09;;;;;;;14.20;10.65;;;;;;;;;;12837506;23;20363;-87
2023/01/20 07:49:11;;;;;;;10.27;7.78;;;;;;;;;;12828126;23;20001;-86
2023/01/20 07:54:12;;;;;;;10.90;8.05;;;;;;;;;;12830604;23;20418;-86
2023/01/20 07:59:13;;;;;;;7.65;6.05;;;;;;;;;;12824087;23;20036;-87
2023/01/20 08:04:16;;;;;;;8.25;6.18;;;;;;;;;;12821009;23;20060;-86
2023/01/20 08:09:17;;;;;;;9.63;7.43;;;;;;;;;;12827982;23;20008;-86
2023/01/20 08:14:18;;;;;;;12.30;8.75;;;;;;;;;;12846390;23;20066;-84
2023/01/20 08:19:19;;;;;;;9.75;7.18;;;;;;;;;;12852057;23;20016;-84
2023/01/20 08:24:20;;;;;;;8.55;7.13;;;;;;;;;;12855933;23;20004;-84
2023/01/20 08:29:32;;;;;;;10.13;6.97;;;;;;;;;;12871015;23;20020;-84
2023/01/20 08:34:34;;;;;;;13.57;10.60;;;;;;;;;;12885822;22;20053;-84
2023/01/20 08:39:35;;;;;;;10.27;7.88;;;;;;;;;;12890599;22;20076;-84
2023/01/20 08:44:36;;;;;;;10.93;7.90;;;;;;;;;;12899931;22;20028;-84
2023/01/20 08:49:37;;;;;;;8.40;6.53;;;;;;;;;;12848527;23;20004;-84
2023/01/20 08:54:38;;;;;;;8.18;6.20;;;;;;;;;;12844213;23;20337;-84
2023/01/20 08:59:39;;;;;;;7.97;5.85;;;;;;;;;;12844125;23;20004;-84
2023/01/20 09:04:41;;;;;;;9.35;7.05;;;;;;;;;;12880351;23;20078;-84
2023/01/20 09:09:43;;;;;;;8.55;6.20;;;;;;;;;;12854018;23;20005;-84
2023/01/20 09:14:44;;;;;;;9.27;7.07;;;;;;;;;;12851626;23;20016;-84
2023/01/20 09:19:45;;;;;;;7.53;6.38;;;;;;;;;;12856448;23;20009;-84
2023/01/20 09:24:52;;;;;;;7.15;5.18;;;;;;;;;;12851485;23;20340;-83
2023/01/20 09:30:02;;;;;;;9.30;6.05;;;;;;;;;;12857239;23;20031;-84
2023/01/20 09:35:03;;;;;;;12.25;9.70;;;;;;;;;;12850455;23;20012;-84
2023/01/20 09:45:27;;;;;;;9.73;7.07;;;;;;;;;;12878347;23;19904;-84
2023/01/20 09:56:17;;;;;;;8.13;5.90;;;;;;;;;;12882366;23;20004;-85
2023/01/20 10:01:38;;;;;;;11.70;7.22;;;;;;;;;;12858814;23;20009;-86
2023/01/20 10:06:51;;;;;;;12.68;9.52;;;;;;;;;;12854830;23;19993;-85
2023/01/20 10:11:55;;;;;;;9.27;7.18;;;;;;;;;;12855322;23;20009;-86
2023/01/20 10:17:09;;;;;;;8.63;6.07;;;;;;;;;;12851323;23;20013;-84
2023/01/20 10:27:58;;;;;;;10.95;8.13;;;;;;;;;;12885279;23;20005;-85
2023/01/20 10:33:27;;;;;;;8.57;6.43;;;;;;;;;;12858838;23;20013;-86
2023/01/20 10:39:01;;;;;;;10.63;7.35;;;;;;;;;;12842473;23;20436;-86
2023/01/20 10:44:03;;;;;;;10.52;8.02;;;;;;;;;;12794304;23;20067;-85
2023/01/20 10:49:07;;;;;;;9.50;7.78;;;;;;;;;;12860275;23;20004;-84
2023/01/20 10:54:27;;;;;;;8.43;5.38;;;;;;;;;;12864724;23;20005;-83
2023/01/20 10:59:31;;;;;;;9.90;7.38;;;;;;;;;;12869789;23;20083;-82
2023/01/20 11:04:34;;;;;;;10.27;8.52;;;;;;;;;;12865284;23;20016;-83
2023/01/20 11:09:36;;;;;;;11.05;7.82;;;;;;;;;;12859429;23;20005;-83
2023/01/20 11:14:38;;;;;;;8.15;6.03;;;;;;;;;;12860812;23;20303;-82
2023/01/20 11:19:46;;;;;;;6.60;4.97;;;;;;;;;;12860980;23;20008;-83
2023/01/20 11:24:47;;;;;;;10.70;6.75;;;;;;;;;;12848144;23;20011;-81
2023/01/20 11:29:50;;;;;;;6.85;5.65;;;;;;;;;;12849959;23;20043;-82
2023/01/20 11:34:52;;;;;;;9.52;7.50;;;;;;;;;;12858389;23;20004;-81
2023/01/20 11:40:00;;;;;;;9.50;6.53;;;;;;;;;;12858184;23;20000;-83
2023/01/20 11:45:03;;;;;;;12.15;8.50;;;;;;;;;;12851342;23;20030;-84
2023/01/20 11:50:07;;;;;;;7.32;5.65;;;;;;;;;;12855050;23;20520;-86
2023/01/20 11:55:19;;;;;;;8.27;5.93;;;;;;;;;;12856435;23;20059;-84
2023/01/20 12:00:50;;;;;;;7.95;6.38;;;;;;;;;;12859761;23;20008;-86
2023/01/20 12:06:25;;;;;;;9.82;5.72;;;;;;;;;;12888771;23;20051;-83
2023/01/20 12:11:47;;;;;;;8.18;6.25;;;;;;;;;;12857836;23;20004;-83
2023/01/20 12:16:48;;;;;;;;;;;;;;;;;;12793329;23;20095;-83
2023/01/20 12:21:52;;;;;;;10.90;7.45;;;;;;;;;;12879778;23;19910;-84
2023/01/20 12:26:56;;;;;;;8.75;7.43;;;;;;;;;;12871920;23;20068;-81
2023/01/20 12:31:59;;;;;;;8.18;6.20;;;;;;;;;;12893345;22;20016;-81
2023/01/20 12:37:18;;;;;;;7.13;5.25;;;;;;;;;;12918442;22;20012;-83
2023/01/20 12:42:37;;;;;;;9.35;6.18;;;;;;;;;;12882229;23;20051;-83
2023/01/20 12:47:44;;;;;;;8.70;6.20;;;;;;;;;;12884464;23;19997;-83
2023/01/20 12:53:09;;;;;;;9.80;6.72;;;;;;;;;;12855006;23;20009;-83
2023/01/20 12:58:22;;;;;;;9.27;6.95;;;;;;;;;;12878191;23;20004;-83
2023/01/20 13:03:41;;;;;;;14.45;9.23;;;;;;;;;;12855294;23;20011;-85
2023/01/20 13:08:50;;;;;;;15.13;9.40;;;;;;;;;;12853423;23;20340;-83
2023/01/20 13:13:59;;;;;;;9.32;5.50;;;;;;;;;;12881772;23;20008;-83
2023/01/20 13:19:19;;;;;;;15.05;9.75;;;;;;;;;;12888604;23;19992;-82
2023/01/20 13:24:28;;;;;;;12.70;7.28;;;;;;;;;;12918209;22;20011;-82
2023/01/20 13:29:52;;;;;;;13.02;8.85;;;;;;;;;;12881828;22;20001;-83
2023/01/20 13:35:13;;;;;;;14.57;9.80;;;;;;;;;;12856406;23;20314;-85
2023/01/20 13:40:38;;;;;;;11.80;6.93;;;;;;;;;;12853485;23;20027;-85
2023/01/20 13:45:39;;;;;;;10.77;8.55;;;;;;;;;;12852247;23;20009;-83
2023/01/20 13:50:41;;;;;;;13.70;7.63;;;;;;;;;;12852294;23;20008;-83
2023/01/20 13:56:02;;;;;;;8.45;4.68;;;;;;;;;;12889037;23;20024;-85
2023/01/20 14:01:07;;;;;;;;;;;;;;;;;;12857222;23;20008;-84
2023/01/20 14:06:22;;;;;;;6.82;4.78;;;;;;;;;;12811910;23;19927;-84
2023/01/20 14:11:31;;;;;;;5.65;4.38;;;;;;;;;;12820670;23;20502;-86
2023/01/20 14:16:35;;;;;;;9.15;6.15;;;;;;;;;;12823934;23;20005;-83
2023/01/20 14:21:41;;;;;;;9.77;6.68;;;;;;;;;;12832742;23;20038;-84
2023/01/20 14:26:42;;;;;;;8.25;4.80;;;;;;;;;;12833913;23;20056;-83
2023/01/20 14:31:43;;;;;;;7.68;4.88;;;;;;;;;;12852227;23;20008;-84
2023/01/20 14:36:48;;;;;;;6.70;3.90;;;;;;;;;;12853416;23;20140;-85
2023/01/20 14:42:01;;;;;;;5.78;4.22;;;;;;;;;;12837827;23;20028;-83
2023/01/20 14:47:03;;;;;;;10.57;6.53;;;;;;;;;;12843562;23;20037;-82
2023/01/20 14:52:05;;;;;;;6.93;4.00;;;;;;;;;;12851935;23;20008;-83
2023/01/20 14:57:26;;;;;;;6.43;4.18;;;;;;;;;;12854389;23;20070;-82
2023/01/20 15:02:29;;;;;;;5.38;3.90;;;;;;;;;;12833582;23;20020;-84
2023/01/20 15:07:30;;;;;;;6.78;5.25;;;;;;;;;;12819299;23;20004;-84
2023/01/20 15:12:31;;;;;;;10.38;7.00;;;;;;;;;;12815273;23;20004;-85
2023/01/20 15:17:32;;;;;;;10.05;6.30;;;;;;;;;;12825649;23;20345;-83
2023/01/20 15:22:34;;;;;;;6.45;3.67;;;;;;;;;;12824023;23;20005;-85
2023/01/20 15:33:20;;;;;;;5.63;3.30;;;;;;;;;;12822677;23;20009;-84
2023/01/20 15:38:21;;;;;;;5.22;4.10;;;;;;;;;;12819769;23;20007;-83
2023/01/20 15:43:22;;;;;;;5.78;3.75;;;;;;;;;;12819753;23;20059;-82
2023/01/20 15:48:23;;;;;;;5.82;4.20;;;;;;;;;;12823680;23;19997;-82
2023/01/20 15:53:24;;;;;;;5.93;4.18;;;;;;;;;;12819074;23;20002;-83
2023/01/20 15:58:27;;;;;;;6.38;3.75;;;;;;;;;;12829142;23;20096;-83
2023/01/20 16:03:32;;;;;;;5.10;3.20;;;;;;;;;;12831322;23;20017;-84
2023/01/20 16:08:35;;;;;;;6.85;3.72;;;;;;;;;;12822696;23;19998;-84
2023/01/20 16:13:36;;;;;;;4.60;3.40;;;;;;;;;;12838110;23;20024;-83
2023/01/20 16:18:37;;;;;;;4.57;3.45;;;;;;;;;;12846662;23;19989;-82
2023/01/20 16:23:40;;;;;;;5.18;4.10;;;;;;;;;;12851864;23;20021;-83
2023/01/20 16:28:41;;;;;;;10.55;3.40;;;;;;;;;;12835167;23;20025;-84
2023/01/20 16:33:43;;;;;;;5.28;3.50;;;;;;;;;;12814274;23;20002;-83
2023/01/20 16:38:44;;;;;;;5.45;3.88;;;;;;;;;;12814245;23;20001;-83
2023/01/20 16:43:45;;;;;;;6.00;3.78;;;;;;;;;;12816092;23;20011;-83
2023/01/20 16:48:46;;;;;;;6.68;4.32;;;;;;;;;;12812292;23;20444;-82
2023/01/20 16:53:47;;;;;;;6.43;4.47;;;;;;;;;;12810756;23;20012;-82
2023/01/20 16:58:49;;;;;;;6.68;4.90;;;;;;;;;;12819591;23;20382;-82
2023/01/20 17:03:50;;;;;;;7.78;5.30;;;;;;;;;;12818912;23;20017;-81
2023/01/20 17:08:53;;;;;;;6.72;4.85;;;;;;;;;;12819438;23;20032;-83
2023/01/20 17:13:54;;;;;;;5.78;4.20;;;;;;;;;;12828357;23;20494;-82
2023/01/20 17:18:57;;;;;;;6.75;4.97;;;;;;;;;;12833138;23;20013;-83
2023/01/20 17:24:02;;;;;;;7.63;4.97;;;;;;;;;;12814030;23;20005;-83
2023/01/20 17:29:04;;;;;;;11.32;7.50;;;;;;;;;;12816310;23;20032;-84
2023/01/20 17:34:06;;;;;;;9.10;6.53;;;;;;;;;;12809527;23;20005;-86
2023/01/20 17:39:27;;;;;;;10.65;6.93;;;;;;;;;;12808232;23;20009;-86
2023/01/20 17:45:00;;;;;;;8.13;5.80;;;;;;;;;;12803334;23;20005;-87
2023/01/20 17:50:15;;;;;;;8.85;5.90;;;;;;;;;;12679927;23;20307;-86
2023/01/20 17:55:18;;;;;;;;;;;;;;;;;;12785750;23;20013;-86
2023/01/20 18:00:30;;;;;;;10.60;6.32;;;;;;;;;;12810345;23;19900;-87
2023/01/20 18:05:53;;;;;;;11.27;8.38;;;;;;;;;;12813542;23;20013;-86
2023/01/20 18:10:54;;;;;;;10.02;7.45;;;;;;;;;;12820781;23;20005;-86
2023/01/20 18:15:55;;;;;;;9.20;6.93;;;;;;;;;;12830001;23;20005;-87
2023/01/20 18:20:57;;;;;;;;;;;;;;;;;;12816478;23;19993;-87
2023/01/20 18:25:58;;;;;;;12.07;9.05;;;;;;;;;;12811949;23;19915;-87
2023/01/20 18:31:06;;;;;;;9.85;8.68;;;;;;;;;;12810741;23;20023;-86
2023/01/20 18:36:08;;;;;;;8.32;7.22;;;;;;;;;;12837140;23;20011;-85
2023/01/20 18:41:10;;;;;;;10.35;8.05;;;;;;;;;;12854040;23;20035;-86
2023/01/20 18:46:11;;;;;;;8.20;6.38;;;;;;;;;;12812211;23;20027;-86
2023/01/20 18:51:15;;;;;;;;;;;;;;;;;;12813000;23;20472;-86
2023/01/20 18:56:16;;;;;;;9.95;8.77;;;;;;;;;;12813358;23;19900;-86
2023/01/20 19:01:19;;;;;;;10.18;8.00;;;;;;;;;;12813524;23;20453;-86
2023/01/20 19:06:24;;;;;;;10.57;9.30;;;;;;;;;;12812492;23;20035;-86
2023/01/20 19:11:27;;;;;;;11.80;9.07;;;;;;;;;;12808225;23;20005;-86
2023/01/20 19:16:32;;;;;;;12.65;9.88;;;;;;;;;;12808489;23;20016;-86
2023/01/20 19:21:35;;;;;;;13.68;10.05;;;;;;;;;;12808108;23;20009;-86
2023/01/20 19:26:37;;;;;;;10.25;8.00;;;;;;;;;;12814401;23;20406;-87
2023/01/20 19:31:39;;;;;;;11.43;8.60;;;;;;;;;;12807351;23;20005;-86
2023/01/20 19:36:40;;;;;;;9.75;7.40;;;;;;;;;;12810218;23;20047;-86
2023/01/20 19:41:42;;;;;;;10.45;8.68;;;;;;;;;;12812642;23;20001;-86
2023/01/20 19:46:43;;;;;;;9.63;7.90;;;;;;;;;;12817918;23;20001;-86
2023/01/20 19:51:45;;;;;;;9.07;7.18;;;;;;;;;;12794893;23;20016;-87
2023/01/20 19:56:46;;;;;;;;;;;;;;;;;;12814926;23;20012;-86
2023/01/20 20:01:47;;;;;;;10.10;7.68;;;;;;;;;;12815095;23;20237;-86
2023/01/20 20:06:48;;;;;;;14.50;11.52;;;;;;;;;;12808692;23;20448;-82
2023/01/20 20:11:49;;;;;;;13.55;10.68;;;;;;;;;;12818827;23;20096;-82
2023/01/20 20:16:50;;;;;;;;;;;;;;;;;;12828989;23;20005;-82
